sensor_id;sensor_type;location;lat;lon;timestamp;temperature;humidity
52509;DHT22;38420;53.150;6.370;2022-12-28T00:01:32;5.50;99.90
52509;DHT22;38420;53.150;6.370;2022-12-28T00:04:00;5.50;99.90
52509;DHT22;38420;53.150;6.370;2022-12-28T00:06:26;5.60;99.90
52509;DHT22;38420;53.150;6.370;2022-12-28T00:08:55;5.50;99.90
52509;DHT22;38420;53.150;6.370;2022-12-28T00:11:23;5.50;99.90
52509;DHT22;38420;53.150;6.370;2022-12-28T00:13:48;5.40;99.90
52509;DHT22;38420;53.150;6.370;2022-12-28T00:16:29;5.70;99.90
52509;DHT22;38420;53.150;6.370;2022-12-28T00:18:56;5.60;99.90
52509;DHT22;38420;53.150;6.370;2022-12-28T00:21:23;5.50;99.90
52509;DHT22;38420;53.150;6.370;2022-12-28T00:23:53;5.60;99.90
52509;DHT22;38420;53.150;6.370;2022-12-28T00:26:19;5.90;99.90
52509;DHT22;38420;53.150;6.370;2022-12-28T00:28:46;5.60;99.90
52509;DHT22;38420;53.150;6.370;2022-12-28T00:31:12;5.50;99.90
52509;DHT22;38420;53.150;6.370;2022-12-28T00:33:38;5.60;99.90
52509;DHT22;38420;53.150;6.370;2022-12-28T00:36:04;5.60;99.90
52509;DHT22;38420;53.150;6.370;2022-12-28T00:38:30;5.70;99.90
52509;DHT22;38420;53.150;6.370;2022-12-28T00:40:57;5.70;99.90
52509;DHT22;38420;53.150;6.370;2022-12-28T00:43:22;5.80;99.90
52509;DHT22;38420;53.150;6.370;2022-12-28T00:45:48;5.60;99.90
52509;DHT22;38420;53.150;6.370;2022-12-28T00:48:14;5.50;99.90
52509;DHT22;38420;53.150;6.370;2022-12-28T00:50:41;5.50;99.90
52509;DHT22;38420;53.150;6.370;2022-12-28T00:53:07;5.50;99.90
52509;DHT22;38420;53.150;6.370;2022-12-28T00:55:33;5.50;99.90
52509;DHT22;38420;53.150;6.370;2022-12-28T00:58:00;5.50;99.90
52509;DHT22;38420;53.150;6.370;2022-12-28T01:00:26;5.60;99.90
52509;DHT22;38420;53.150;6.370;2022-12-28T01:02:52;5.80;99.90
52509;DHT22;38420;53.150;6.370;2022-12-28T01:05:18;5.60;99.90
52509;DHT22;38420;53.150;6.370;2022-12-28T01:07:43;5.80;99.90
52509;DHT22;38420;53.150;6.370;2022-12-28T01:10:09;5.90;99.90
52509;DHT22;38420;53.150;6.370;2022-12-28T01:12:35;5.60;99.90
52509;DHT22;38420;53.150;6.370;2022-12-28T01:15:03;5.70;99.90
52509;DHT22;38420;53.150;6.370;2022-12-28T01:17:29;5.70;99.90
52509;DHT22;38420;53.150;6.370;2022-12-28T01:19:54;5.90;99.90
52509;DHT22;38420;53.150;6.370;2022-12-28T01:22:20;5.90;99.90
52509;DHT22;38420;53.150;6.370;2022-12-28T01:24:46;5.80;99.90
52509;DHT22;38420;53.150;6.370;2022-12-28T01:27:12;6.00;99.90
52509;DHT22;38420;53.150;6.370;2022-12-28T01:29:37;5.80;99.90
52509;DHT22;38420;53.150;6.370;2022-12-28T01:32:03;5.80;99.90
52509;DHT22;38420;53.150;6.370;2022-12-28T01:34:29;6.00;99.90
52509;DHT22;38420;53.150;6.370;2022-12-28T01:36:54;6.00;99.90
52509;DHT22;38420;53.150;6.370;2022-12-28T01:39:20;6.00;99.90
52509;DHT22;38420;53.150;6.370;2022-12-28T01:41:46;6.00;99.90
52509;DHT22;38420;53.150;6.370;2022-12-28T01:47:02;5.90;99.90
52509;DHT22;38420;53.150;6.370;2022-12-28T01:49:37;6.10;99.90
52509;DHT22;38420;53.150;6.370;2022-12-28T01:52:17;6.00;99.90
52509;DHT22;38420;53.150;6.370;2022-12-28T01:54:51;6.00;99.90
52509;DHT22;38420;53.150;6.370;2022-12-28T01:57:18;6.00;99.90
52509;DHT22;38420;53.150;6.370;2022-12-28T01:59:49;6.10;99.90
52509;DHT22;38420;53.150;6.370;2022-12-28T02:02:17;6.00;99.90
52509;DHT22;38420;53.150;6.370;2022-12-28T02:04:46;6.10;99.90
52509;DHT22;38420;53.150;6.370;2022-12-28T02:07:15;5.90;99.90
52509;DHT22;38420;53.150;6.370;2022-12-28T02:09:43;6.20;99.90
52509;DHT22;38420;53.150;6.370;2022-12-28T02:12:12;6.00;99.90
52509;DHT22;38420;53.150;6.370;2022-12-28T02:14:40;5.90;99.90
52509;DHT22;38420;53.150;6.370;2022-12-28T02:17:08;6.00;99.90
52509;DHT22;38420;53.150;6.370;2022-12-28T02:19:45;5.90;99.90
52509;DHT22;38420;53.150;6.370;2022-12-28T02:30:20;6.00;99.90
52509;DHT22;38420;53.150;6.370;2022-12-28T02:33:07;5.80;99.90
52509;DHT22;38420;53.150;6.370;2022-12-28T02:35:56;6.10;99.90
52509;DHT22;38420;53.150;6.370;2022-12-28T02:38:40;6.10;99.90
52509;DHT22;38420;53.150;6.370;2022-12-28T02:41:13;6.00;99.90
52509;DHT22;38420;53.150;6.370;2022-12-28T02:43:39;6.10;99.90
52509;DHT22;38420;53.150;6.370;2022-12-28T02:46:10;5.70;99.90
52509;DHT22;38420;53.150;6.370;2022-12-28T02:48:55;6.20;99.90
52509;DHT22;38420;53.150;6.370;2022-12-28T03:00:20;6.00;99.90
52509;DHT22;38420;53.150;6.370;2022-12-28T03:08:39;5.80;99.90
52509;DHT22;38420;53.150;6.370;2022-12-28T03:11:09;5.90;99.90
52509;DHT22;38420;53.150;6.370;2022-12-28T03:13:41;6.00;99.90
52509;DHT22;38420;53.150;6.370;2022-12-28T03:16:20;6.40;99.90
52509;DHT22;38420;53.150;6.370;2022-12-28T03:18:52;6.40;99.90
52509;DHT22;38420;53.150;6.370;2022-12-28T03:21:39;6.50;99.90
52509;DHT22;38420;53.150;6.370;2022-12-28T03:24:24;6.50;99.90
52509;DHT22;38420;53.150;6.370;2022-12-28T03:27:10;6.60;99.90
52509;DHT22;38420;53.150;6.370;2022-12-28T03:30:09;6.60;99.90
52509;DHT22;38420;53.150;6.370;2022-12-28T03:32:55;6.10;99.90
52509;DHT22;38420;53.150;6.370;2022-12-28T03:35:25;6.20;99.90
52509;DHT22;38420;53.150;6.370;2022-12-28T03:37:57;6.70;99.90
52509;DHT22;38420;53.150;6.370;2022-12-28T03:40:40;6.40;99.90
52509;DHT22;38420;53.150;6.370;2022-12-28T03:43:19;6.70;99.90
52509;DHT22;38420;53.150;6.370;2022-12-28T03:46:12;6.50;99.90
52509;DHT22;38420;53.150;6.370;2022-12-28T03:48:40;6.60;99.90
52509;DHT22;38420;53.150;6.370;2022-12-28T03:51:06;6.40;99.90
52509;DHT22;38420;53.150;6.370;2022-12-28T03:53:43;6.50;99.90
52509;DHT22;38420;53.150;6.370;2022-12-28T03:56:27;6.20;99.90
52509;DHT22;38420;53.150;6.370;2022-12-28T03:58:54;6.70;99.90
52509;DHT22;38420;53.150;6.370;2022-12-28T04:01:20;6.80;99.90
52509;DHT22;38420;53.150;6.370;2022-12-28T04:03:45;6.30;99.90
52509;DHT22;38420;53.150;6.370;2022-12-28T04:06:16;6.20;99.90
52509;DHT22;38420;53.150;6.370;2022-12-28T04:08:43;6.20;99.90
52509;DHT22;38420;53.150;6.370;2022-12-28T04:11:09;6.40;99.90
52509;DHT22;38420;53.150;6.370;2022-12-28T04:13:35;6.50;99.90
52509;DHT22;38420;53.150;6.370;2022-12-28T04:16:04;6.90;99.90
52509;DHT22;38420;53.150;6.370;2022-12-28T04:18:31;6.40;99.90
52509;DHT22;38420;53.150;6.370;2022-12-28T04:20:57;6.90;99.90
52509;DHT22;38420;53.150;6.370;2022-12-28T04:23:22;6.80;99.90
52509;DHT22;38420;53.150;6.370;2022-12-28T04:26:02;6.80;99.90
52509;DHT22;38420;53.150;6.370;2022-12-28T04:28:29;6.90;99.90
52509;DHT22;38420;53.150;6.370;2022-12-28T04:30:56;6.50;99.90
52509;DHT22;38420;53.150;6.370;2022-12-28T04:33:23;6.50;99.90
52509;DHT22;38420;53.150;6.370;2022-12-28T04:35:48;6.70;99.90
52509;DHT22;38420;53.150;6.370;2022-12-28T04:38:15;6.40;99.90
52509;DHT22;38420;53.150;6.370;2022-12-28T04:40:40;6.70;99.90
52509;DHT22;38420;53.150;6.370;2022-12-28T04:43:06;7.00;99.90
52509;DHT22;38420;53.150;6.370;2022-12-28T04:45:32;7.10;99.90
52509;DHT22;38420;53.150;6.370;2022-12-28T04:47:58;7.20;99.90
52509;DHT22;38420;53.150;6.370;2022-12-28T04:50:25;6.50;99.90
52509;DHT22;38420;53.150;6.370;2022-12-28T04:52:51;6.60;99.90
52509;DHT22;38420;53.150;6.370;2022-12-28T04:55:17;6.60;99.90
52509;DHT22;38420;53.150;6.370;2022-12-28T04:57:43;6.90;99.90
52509;DHT22;38420;53.150;6.370;2022-12-28T05:00:09;6.70;99.90
52509;DHT22;38420;53.150;6.370;2022-12-28T05:02:35;7.10;99.90
52509;DHT22;38420;53.150;6.370;2022-12-28T05:05:01;6.80;99.90
52509;DHT22;38420;53.150;6.370;2022-12-28T05:07:27;6.90;99.90
52509;DHT22;38420;53.150;6.370;2022-12-28T05:09:53;7.30;99.90
52509;DHT22;38420;53.150;6.370;2022-12-28T05:12:19;6.80;99.90
52509;DHT22;38420;53.150;6.370;2022-12-28T05:14:45;7.40;99.90
52509;DHT22;38420;53.150;6.370;2022-12-28T05:17:11;7.30;99.90
52509;DHT22;38420;53.150;6.370;2022-12-28T05:19:36;7.00;99.90
52509;DHT22;38420;53.150;6.370;2022-12-28T05:22:02;7.30;99.90
52509;DHT22;38420;53.150;6.370;2022-12-28T05:24:28;7.00;99.90
52509;DHT22;38420;53.150;6.370;2022-12-28T05:26:53;7.50;99.90
52509;DHT22;38420;53.150;6.370;2022-12-28T05:29:19;7.60;99.90
52509;DHT22;38420;53.150;6.370;2022-12-28T05:31:45;7.60;99.90
52509;DHT22;38420;53.150;6.370;2022-12-28T05:34:10;7.20;99.90
52509;DHT22;38420;53.150;6.370;2022-12-28T05:36:36;7.60;99.90
52509;DHT22;38420;53.150;6.370;2022-12-28T05:39:04;7.80;99.90
52509;DHT22;38420;53.150;6.370;2022-12-28T05:41:30;7.50;99.90
52509;DHT22;38420;53.150;6.370;2022-12-28T05:43:57;7.20;99.90
52509;DHT22;38420;53.150;6.370;2022-12-28T05:46:31;7.70;99.90
52509;DHT22;38420;53.150;6.370;2022-12-28T05:48:57;7.80;99.90
52509;DHT22;38420;53.150;6.370;2022-12-28T05:51:26;7.30;99.90
52509;DHT22;38420;53.150;6.370;2022-12-28T05:53:52;7.90;99.90
52509;DHT22;38420;53.150;6.370;2022-12-28T05:56:20;8.10;99.90
52509;DHT22;38420;53.150;6.370;2022-12-28T05:58:57;8.00;99.90
52509;DHT22;38420;53.150;6.370;2022-12-28T06:01:26;7.60;99.90
52509;DHT22;38420;53.150;6.370;2022-12-28T06:03:54;7.40;99.90
52509;DHT22;38420;53.150;6.370;2022-12-28T06:06:20;7.90;99.90
52509;DHT22;38420;53.150;6.370;2022-12-28T06:08:47;7.60;99.90
52509;DHT22;38420;53.150;6.370;2022-12-28T06:11:16;7.90;99.90
52509;DHT22;38420;53.150;6.370;2022-12-28T06:13:42;7.90;99.90
52509;DHT22;38420;53.150;6.370;2022-12-28T06:16:11;7.50;99.90
52509;DHT22;38420;53.150;6.370;2022-12-28T06:18:37;7.60;99.90
52509;DHT22;38420;53.150;6.370;2022-12-28T06:21:04;7.90;99.90
52509;DHT22;38420;53.150;6.370;2022-12-28T06:23:30;7.90;99.90
52509;DHT22;38420;53.150;6.370;2022-12-28T06:26:01;8.10;99.90
52509;DHT22;38420;53.150;6.370;2022-12-28T06:28:27;8.70;99.90
52509;DHT22;38420;53.150;6.370;2022-12-28T06:31:04;8.20;99.90
52509;DHT22;38420;53.150;6.370;2022-12-28T06:33:30;8.10;99.90
52509;DHT22;38420;53.150;6.370;2022-12-28T06:35:56;7.80;99.90
52509;DHT22;38420;53.150;6.370;2022-12-28T06:38:21;7.70;99.90
52509;DHT22;38420;53.150;6.370;2022-12-28T06:40:47;8.00;99.90
52509;DHT22;38420;53.150;6.370;2022-12-28T06:43:13;8.40;99.90
52509;DHT22;38420;53.150;6.370;2022-12-28T06:45:39;8.60;99.90
52509;DHT22;38420;53.150;6.370;2022-12-28T06:48:05;8.60;99.90
52509;DHT22;38420;53.150;6.370;2022-12-28T06:50:30;8.50;99.90
52509;DHT22;38420;53.150;6.370;2022-12-28T06:52:56;8.60;99.90
52509;DHT22;38420;53.150;6.370;2022-12-28T06:55:21;7.90;99.90
52509;DHT22;38420;53.150;6.370;2022-12-28T06:57:47;8.60;99.90
52509;DHT22;38420;53.150;6.370;2022-12-28T07:00:13;8.40;99.90
52509;DHT22;38420;53.150;6.370;2022-12-28T07:02:39;8.00;99.90
52509;DHT22;38420;53.150;6.370;2022-12-28T07:05:04;8.40;99.90
52509;DHT22;38420;53.150;6.370;2022-12-28T07:07:30;8.60;99.90
52509;DHT22;38420;53.150;6.370;2022-12-28T07:09:55;8.50;99.90
52509;DHT22;38420;53.150;6.370;2022-12-28T07:12:21;8.10;99.90
52509;DHT22;38420;53.150;6.370;2022-12-28T07:14:47;8.30;99.90
52509;DHT22;38420;53.150;6.370;2022-12-28T07:17:12;8.60;99.90
52509;DHT22;38420;53.150;6.370;2022-12-28T07:19:38;8.10;99.90
52509;DHT22;38420;53.150;6.370;2022-12-28T07:22:03;8.30;99.90
52509;DHT22;38420;53.150;6.370;2022-12-28T07:24:29;8.40;99.90
52509;DHT22;38420;53.150;6.370;2022-12-28T07:26:54;8.10;99.90
52509;DHT22;38420;53.150;6.370;2022-12-28T07:29:20;8.30;99.90
52509;DHT22;38420;53.150;6.370;2022-12-28T07:31:45;8.20;99.90
52509;DHT22;38420;53.150;6.370;2022-12-28T07:34:14;8.60;99.90
52509;DHT22;38420;53.150;6.370;2022-12-28T07:36:40;8.90;99.90
52509;DHT22;38420;53.150;6.370;2022-12-28T07:39:06;8.70;99.90
52509;DHT22;38420;53.150;6.370;2022-12-28T07:41:33;9.00;99.90
52509;DHT22;38420;53.150;6.370;2022-12-28T07:44:00;8.90;99.90
52509;DHT22;38420;53.150;6.370;2022-12-28T07:46:30;9.00;99.90
52509;DHT22;38420;53.150;6.370;2022-12-28T07:48:56;8.70;99.90
52509;DHT22;38420;53.150;6.370;2022-12-28T07:51:26;9.00;99.90
52509;DHT22;38420;53.150;6.370;2022-12-28T07:53:54;8.50;99.90
52509;DHT22;38420;53.150;6.370;2022-12-28T07:56:21;8.90;99.90
52509;DHT22;38420;53.150;6.370;2022-12-28T07:58:49;8.40;99.90
52509;DHT22;38420;53.150;6.370;2022-12-28T08:01:16;8.50;99.90
52509;DHT22;38420;53.150;6.370;2022-12-28T08:03:42;8.50;99.90
52509;DHT22;38420;53.150;6.370;2022-12-28T08:06:14;8.70;99.90
52509;DHT22;38420;53.150;6.370;2022-12-28T08:08:40;9.00;99.90
52509;DHT22;38420;53.150;6.370;2022-12-28T08:11:12;9.00;99.90
52509;DHT22;38420;53.150;6.370;2022-12-28T08:13:40;8.40;99.90
52509;DHT22;38420;53.150;6.370;2022-12-28T08:16:07;8.80;99.90
52509;DHT22;38420;53.150;6.370;2022-12-28T08:18:33;9.00;99.90
52509;DHT22;38420;53.150;6.370;2022-12-28T08:21:04;9.00;99.90
52509;DHT22;38420;53.150;6.370;2022-12-28T08:23:31;8.90;99.90
52509;DHT22;38420;53.150;6.370;2022-12-28T08:26:25;8.50;99.90
52509;DHT22;38420;53.150;6.370;2022-12-28T08:28:54;8.70;99.90
52509;DHT22;38420;53.150;6.370;2022-12-28T08:31:22;8.50;99.90
52509;DHT22;38420;53.150;6.370;2022-12-28T08:33:48;8.90;99.90
52509;DHT22;38420;53.150;6.370;2022-12-28T08:36:14;8.60;99.90
52509;DHT22;38420;53.150;6.370;2022-12-28T08:38:41;9.10;99.90
52509;DHT22;38420;53.150;6.370;2022-12-28T08:41:09;9.10;99.90
52509;DHT22;38420;53.150;6.370;2022-12-28T08:43:36;9.10;99.90
52509;DHT22;38420;53.150;6.370;2022-12-28T08:46:04;8.70;99.90
52509;DHT22;38420;53.150;6.370;2022-12-28T08:48:31;8.90;99.90
52509;DHT22;38420;53.150;6.370;2022-12-28T08:51:05;8.80;99.90
52509;DHT22;38420;53.150;6.370;2022-12-28T08:53:32;8.90;99.90
52509;DHT22;38420;53.150;6.370;2022-12-28T08:56:09;8.50;99.90
52509;DHT22;38420;53.150;6.370;2022-12-28T08:58:36;8.70;99.90
52509;DHT22;38420;53.150;6.370;2022-12-28T09:01:10;8.70;99.90
52509;DHT22;38420;53.150;6.370;2022-12-28T09:03:37;9.10;99.90
52509;DHT22;38420;53.150;6.370;2022-12-28T09:06:08;8.50;99.90
52509;DHT22;38420;53.150;6.370;2022-12-28T09:08:35;8.60;99.90
52509;DHT22;38420;53.150;6.370;2022-12-28T09:11:01;9.10;99.90
52509;DHT22;38420;53.150;6.370;2022-12-28T09:13:27;8.70;99.90
52509;DHT22;38420;53.150;6.370;2022-12-28T09:16:05;9.10;99.90
52509;DHT22;38420;53.150;6.370;2022-12-28T09:18:31;9.10;99.90
52509;DHT22;38420;53.150;6.370;2022-12-28T09:21:04;8.90;99.90
52509;DHT22;38420;53.150;6.370;2022-12-28T09:23:30;8.90;99.90
52509;DHT22;38420;53.150;6.370;2022-12-28T09:25:55;8.90;99.90
52509;DHT22;38420;53.150;6.370;2022-12-28T09:28:21;8.50;99.90
52509;DHT22;38420;53.150;6.370;2022-12-28T09:30:46;8.80;99.90
52509;DHT22;38420;53.150;6.370;2022-12-28T09:33:12;8.80;99.90
52509;DHT22;38420;53.150;6.370;2022-12-28T09:35:57;9.10;99.90
52509;DHT22;38420;53.150;6.370;2022-12-28T09:38:24;8.90;99.90
52509;DHT22;38420;53.150;6.370;2022-12-28T09:40:49;9.00;99.90
52509;DHT22;38420;53.150;6.370;2022-12-28T09:43:15;8.80;99.90
52509;DHT22;38420;53.150;6.370;2022-12-28T09:45:42;9.10;99.90
52509;DHT22;38420;53.150;6.370;2022-12-28T09:48:13;8.50;99.90
52509;DHT22;38420;53.150;6.370;2022-12-28T09:50:40;9.10;99.90
52509;DHT22;38420;53.150;6.370;2022-12-28T09:53:26;9.10;99.90
52509;DHT22;38420;53.150;6.370;2022-12-28T09:58:42;9.00;99.90
52509;DHT22;38420;53.150;6.370;2022-12-28T10:01:11;9.20;99.90
52509;DHT22;38420;53.150;6.370;2022-12-28T10:03:39;9.10;99.90
52509;DHT22;38420;53.150;6.370;2022-12-28T10:06:21;9.10;99.90
52509;DHT22;38420;53.150;6.370;2022-12-28T10:08:55;8.40;99.90
52509;DHT22;38420;53.150;6.370;2022-12-28T10:11:24;8.60;99.90
52509;DHT22;38420;53.150;6.370;2022-12-28T10:13:58;8.50;99.90
52509;DHT22;38420;53.150;6.370;2022-12-28T10:16:31;8.80;99.90
52509;DHT22;38420;53.150;6.370;2022-12-28T10:18:57;8.60;99.90
52509;DHT22;38420;53.150;6.370;2022-12-28T10:21:27;9.00;99.90
52509;DHT22;38420;53.150;6.370;2022-12-28T10:23:54;8.70;99.90
52509;DHT22;38420;53.150;6.370;2022-12-28T10:26:24;8.60;99.90
52509;DHT22;38420;53.150;6.370;2022-12-28T10:28:57;9.70;99.90
52509;DHT22;38420;53.150;6.370;2022-12-28T10:31:38;8.50;99.90
52509;DHT22;38420;53.150;6.370;2022-12-28T10:34:18;8.70;99.90
52509;DHT22;38420;53.150;6.370;2022-12-28T10:36:47;8.90;99.90
52509;DHT22;38420;53.150;6.370;2022-12-28T10:39:19;8.60;99.90
52509;DHT22;38420;53.150;6.370;2022-12-28T10:41:47;10.40;99.90
52509;DHT22;38420;53.150;6.370;2022-12-28T10:46:56;9.00;99.90
52509;DHT22;38420;53.150;6.370;2022-12-28T10:49:24;9.40;99.90
52509;DHT22;38420;53.150;6.370;2022-12-28T10:51:59;9.40;99.90
52509;DHT22;38420;53.150;6.370;2022-12-28T10:54:25;9.10;99.90
52509;DHT22;38420;53.150;6.370;2022-12-28T10:56:51;8.90;99.90
52509;DHT22;38420;53.150;6.370;2022-12-28T10:59:25;8.90;99.90
52509;DHT22;38420;53.150;6.370;2022-12-28T11:01:53;8.80;99.90
52509;DHT22;38420;53.150;6.370;2022-12-28T11:04:23;9.20;99.90
52509;DHT22;38420;53.150;6.370;2022-12-28T11:06:59;9.00;99.90
52509;DHT22;38420;53.150;6.370;2022-12-28T11:09:28;9.00;99.90
52509;DHT22;38420;53.150;6.370;2022-12-28T11:12:08;9.40;99.90
52509;DHT22;38420;53.150;6.370;2022-12-28T11:14:39;9.20;99.90
52509;DHT22;38420;53.150;6.370;2022-12-28T11:19:39;9.30;99.90
52509;DHT22;38420;53.150;6.370;2022-12-28T11:22:09;8.70;99.90
52509;DHT22;38420;53.150;6.370;2022-12-28T11:24:35;8.70;99.90
52509;DHT22;38420;53.150;6.370;2022-12-28T11:27:02;8.70;99.90
52509;DHT22;38420;53.150;6.370;2022-12-28T11:29:28;9.20;99.90
52509;DHT22;38420;53.150;6.370;2022-12-28T11:32:06;9.20;99.90
52509;DHT22;38420;53.150;6.370;2022-12-28T11:34:36;8.90;99.90
52509;DHT22;38420;53.150;6.370;2022-12-28T11:37:02;9.40;99.90
52509;DHT22;38420;53.150;6.370;2022-12-28T11:39:30;8.90;99.90
52509;DHT22;38420;53.150;6.370;2022-12-28T11:42:00;9.10;99.90
52509;DHT22;38420;53.150;6.370;2022-12-28T11:49:40;9.30;99.90
52509;DHT22;38420;53.150;6.370;2022-12-28T11:55:01;8.60;99.90
52509;DHT22;38420;53.150;6.370;2022-12-28T11:57:45;8.60;99.90
52509;DHT22;38420;53.150;6.370;2022-12-28T12:03:06;9.40;99.90
52509;DHT22;38420;53.150;6.370;2022-12-28T12:10:43;8.70;99.90
52509;DHT22;38420;53.150;6.370;2022-12-28T12:15:51;9.30;99.90
52509;DHT22;38420;53.150;6.370;2022-12-28T12:18:23;9.10;99.90
52509;DHT22;38420;53.150;6.370;2022-12-28T12:20:54;9.00;99.90
52509;DHT22;38420;53.150;6.370;2022-12-28T12:26:00;8.60;99.90
52509;DHT22;38420;53.150;6.370;2022-12-28T12:28:36;8.60;99.90
52509;DHT22;38420;53.150;6.370;2022-12-28T12:31:07;9.30;99.90
52509;DHT22;38420;53.150;6.370;2022-12-28T12:33:38;9.00;99.90
52509;DHT22;38420;53.150;6.370;2022-12-28T12:39:19;9.20;99.90
52509;DHT22;38420;53.150;6.370;2022-12-28T12:48:05;9.20;99.90
52509;DHT22;38420;53.150;6.370;2022-12-28T13:04:44;8.90;99.90
52509;DHT22;38420;53.150;6.370;2022-12-28T13:07:23;9.10;99.90
52509;DHT22;38420;53.150;6.370;2022-12-28T13:09:53;8.90;99.90
52509;DHT22;38420;53.150;6.370;2022-12-28T13:12:19;9.00;99.90
52509;DHT22;38420;53.150;6.370;2022-12-28T13:14:47;9.30;99.90
52509;DHT22;38420;53.150;6.370;2022-12-28T13:17:17;9.10;99.90
52509;DHT22;38420;53.150;6.370;2022-12-28T13:19:43;8.50;99.90
52509;DHT22;38420;53.150;6.370;2022-12-28T13:22:26;9.20;99.90
52509;DHT22;38420;53.150;6.370;2022-12-28T13:24:52;8.60;99.90
52509;DHT22;38420;53.150;6.370;2022-12-28T13:27:19;9.20;99.90
52509;DHT22;38420;53.150;6.370;2022-12-28T13:29:52;9.10;99.90
52509;DHT22;38420;53.150;6.370;2022-12-28T13:32:30;8.60;99.90
52509;DHT22;38420;53.150;6.370;2022-12-28T13:34:56;8.60;99.90
52509;DHT22;38420;53.150;6.370;2022-12-28T13:37:22;8.80;99.90
52509;DHT22;38420;53.150;6.370;2022-12-28T13:39:48;8.90;99.90
52509;DHT22;38420;53.150;6.370;2022-12-28T13:42:17;8.60;99.90
52509;DHT22;38420;53.150;6.370;2022-12-28T13:47:25;8.60;99.90
52509;DHT22;38420;53.150;6.370;2022-12-28T13:52:45;9.10;99.90
52509;DHT22;38420;53.150;6.370;2022-12-28T13:55:15;8.60;99.90
52509;DHT22;38420;53.150;6.370;2022-12-28T13:57:45;8.90;99.90
52509;DHT22;38420;53.150;6.370;2022-12-28T14:00:16;8.90;99.90
52509;DHT22;38420;53.150;6.370;2022-12-28T14:02:42;8.70;99.90
52509;DHT22;38420;53.150;6.370;2022-12-28T14:05:15;8.90;99.90
52509;DHT22;38420;53.150;6.370;2022-12-28T14:07:41;8.60;99.90
52509;DHT22;38420;53.150;6.370;2022-12-28T14:10:09;8.70;99.90
52509;DHT22;38420;53.150;6.370;2022-12-28T14:12:35;8.60;99.90
52509;DHT22;38420;53.150;6.370;2022-12-28T14:15:02;8.60;99.90
52509;DHT22;38420;53.150;6.370;2022-12-28T14:17:29;8.70;99.90
52509;DHT22;38420;53.150;6.370;2022-12-28T14:19:55;8.60;99.90
52509;DHT22;38420;53.150;6.370;2022-12-28T14:22:30;8.60;99.90
52509;DHT22;38420;53.150;6.370;2022-12-28T14:27:29;8.60;99.90
52509;DHT22;38420;53.150;6.370;2022-12-28T14:29:55;8.70;99.90
52509;DHT22;38420;53.150;6.370;2022-12-28T14:32:23;8.70;99.90
52509;DHT22;38420;53.150;6.370;2022-12-28T14:34:54;8.60;99.90
52509;DHT22;38420;53.150;6.370;2022-12-28T14:37:30;8.90;99.90
52509;DHT22;38420;53.150;6.370;2022-12-28T14:40:00;8.90;99.90
52509;DHT22;38420;53.150;6.370;2022-12-28T14:42:27;8.80;99.90
52509;DHT22;38420;53.150;6.370;2022-12-28T14:44:53;8.60;99.90
52509;DHT22;38420;53.150;6.370;2022-12-28T14:49:59;9.00;99.90
52509;DHT22;38420;53.150;6.370;2022-12-28T14:52:40;9.00;99.90
52509;DHT22;38420;53.150;6.370;2022-12-28T14:55:23;8.70;99.90
52509;DHT22;38420;53.150;6.370;2022-12-28T14:57:54;8.90;99.90
52509;DHT22;38420;53.150;6.370;2022-12-28T15:00:25;8.60;99.90
52509;DHT22;38420;53.150;6.370;2022-12-28T15:02:51;8.90;99.90
52509;DHT22;38420;53.150;6.370;2022-12-28T15:05:44;8.60;99.90
52509;DHT22;38420;53.150;6.370;2022-12-28T15:08:10;8.60;99.90
52509;DHT22;38420;53.150;6.370;2022-12-28T15:10:46;8.60;99.90
52509;DHT22;38420;53.150;6.370;2022-12-28T15:13:13;8.80;99.90
52509;DHT22;38420;53.150;6.370;2022-12-28T15:15:39;8.70;99.90
52509;DHT22;38420;53.150;6.370;2022-12-28T15:18:04;8.60;99.90
52509;DHT22;38420;53.150;6.370;2022-12-28T15:20:30;8.90;99.90
52509;DHT22;38420;53.150;6.370;2022-12-28T15:22:56;9.00;99.90
52509;DHT22;38420;53.150;6.370;2022-12-28T15:25:22;8.70;99.90
52509;DHT22;38420;53.150;6.370;2022-12-28T15:27:49;9.00;99.90
52509;DHT22;38420;53.150;6.370;2022-12-28T15:30:15;9.80;99.90
52509;DHT22;38420;53.150;6.370;2022-12-28T15:32:40;9.00;99.90
52509;DHT22;38420;53.150;6.370;2022-12-28T15:35:06;9.00;99.90
52509;DHT22;38420;53.150;6.370;2022-12-28T15:37:32;8.70;99.90
52509;DHT22;38420;53.150;6.370;2022-12-28T15:39:57;8.70;99.90
52509;DHT22;38420;53.150;6.370;2022-12-28T15:42:23;8.70;99.90
52509;DHT22;38420;53.150;6.370;2022-12-28T15:44:48;9.00;99.90
52509;DHT22;38420;53.150;6.370;2022-12-28T15:47:17;9.10;99.90
52509;DHT22;38420;53.150;6.370;2022-12-28T15:49:42;9.00;99.90
52509;DHT22;38420;53.150;6.370;2022-12-28T15:52:08;8.80;99.90
52509;DHT22;38420;53.150;6.370;2022-12-28T15:54:34;9.10;99.90
52509;DHT22;38420;53.150;6.370;2022-12-28T15:56:59;9.10;99.90
52509;DHT22;38420;53.150;6.370;2022-12-28T15:59:25;9.10;99.90
52509;DHT22;38420;53.150;6.370;2022-12-28T16:01:51;9.10;99.90
52509;DHT22;38420;53.150;6.370;2022-12-28T16:04:17;8.90;99.90
52509;DHT22;38420;53.150;6.370;2022-12-28T16:06:43;9.10;99.90
52509;DHT22;38420;53.150;6.370;2022-12-28T16:09:09;8.90;99.90
52509;DHT22;38420;53.150;6.370;2022-12-28T16:11:35;9.10;99.90
52509;DHT22;38420;53.150;6.370;2022-12-28T16:14:03;8.90;99.90
52509;DHT22;38420;53.150;6.370;2022-12-28T16:16:31;9.20;99.90
52509;DHT22;38420;53.150;6.370;2022-12-28T16:18:58;9.10;99.90
52509;DHT22;38420;53.150;6.370;2022-12-28T16:21:25;8.90;99.90
52509;DHT22;38420;53.150;6.370;2022-12-28T16:23:51;8.80;99.90
52509;DHT22;38420;53.150;6.370;2022-12-28T16:26:17;9.10;99.90
52509;DHT22;38420;53.150;6.370;2022-12-28T16:28:43;9.10;99.90
52509;DHT22;38420;53.150;6.370;2022-12-28T16:33:56;8.90;99.90
52509;DHT22;38420;53.150;6.370;2022-12-28T16:36:22;8.80;99.90
52509;DHT22;38420;53.150;6.370;2022-12-28T16:38:48;9.10;99.90
52509;DHT22;38420;53.150;6.370;2022-12-28T16:41:14;8.90;99.90
52509;DHT22;38420;53.150;6.370;2022-12-28T16:43:39;8.70;99.90
52509;DHT22;38420;53.150;6.370;2022-12-28T16:46:06;9.00;99.90
52509;DHT22;38420;53.150;6.370;2022-12-28T16:48:33;8.70;99.90
52509;DHT22;38420;53.150;6.370;2022-12-28T16:50:59;9.00;99.90
52509;DHT22;38420;53.150;6.370;2022-12-28T16:53:26;8.90;99.90
52509;DHT22;38420;53.150;6.370;2022-12-28T16:55:52;10.00;99.90
52509;DHT22;38420;53.150;6.370;2022-12-28T16:58:18;8.90;99.90
52509;DHT22;38420;53.150;6.370;2022-12-28T17:00:44;9.00;99.90
52509;DHT22;38420;53.150;6.370;2022-12-28T17:03:10;8.70;99.90
52509;DHT22;38420;53.150;6.370;2022-12-28T17:05:36;8.80;99.90
52509;DHT22;38420;53.150;6.370;2022-12-28T17:08:03;9.00;99.90
52509;DHT22;38420;53.150;6.370;2022-12-28T17:10:29;8.90;99.90
52509;DHT22;38420;53.150;6.370;2022-12-28T17:12:55;8.80;99.90
52509;DHT22;38420;53.150;6.370;2022-12-28T17:15:22;8.90;99.90
52509;DHT22;38420;53.150;6.370;2022-12-28T17:17:47;8.90;99.90
52509;DHT22;38420;53.150;6.370;2022-12-28T17:20:13;9.00;99.90
52509;DHT22;38420;53.150;6.370;2022-12-28T17:22:38;8.90;99.90
52509;DHT22;38420;53.150;6.370;2022-12-28T17:25:06;8.70;99.90
52509;DHT22;38420;53.150;6.370;2022-12-28T17:27:32;8.90;99.90